Terminal Aerodrome Forecast
Issued by NWS Duluth, MN

Home | Current Version | Previous Version | Text Only | Print | Product List | Glossary On
Versions: 1 2 3 4 5 6 7 8 9 10 11 12 13 14 15 16 17 18 19 20 21 22 23 24
000
FTUS43 KDLH 260800 AAA
TAFINL
TAF AMD
KINL 260854Z 2609/2706 35008KT 6SM -SN BR SCT020 OVC070
      TEMPO 2609/2612 3SM -SN OVC025
     FM261200 35011KT P6SM OVC100
     FM262200 34007KT P6SM SKC=

USA.gov is the U.S. government's official web portal to all federal, state and local government web resources and services.